Date,TemperatureHighF,TemperatureAvgF,TemperatureLowF,DewpointHighF,DewpointAvgF,DewpointLowF,HumidityHigh,HumidityAvg,HumidityLow,PressureMaxIn,PressureMinIn,WindSpeedMaxMPH,WindSpeedAvgMPH,GustSpeedMaxMPH,PrecipitationSumIn
2013-6-1,94.5,75.2,61.2,69.9,63.8,59.5,98,71,36,29.24,29.12,10,3,15,0.04
2013-6-2,83.5,70.8,63.7,70.9,66.2,62.0,98,87,53,29.15,29.03,10,1,15,0.91
2013-6-3,84.9,70.5,60.6,69.6,60.9,52.5,98,76,40,29.15,29.06,7,0,9,0.00
2013-6-4,94.8,70.7,54.3,64.4,57.1,50.8,98,68,33,29.21,29.12,7,1,9,0.00
2013-6-5,96.6,69.0,59.0,69.5,62.8,58.4,98,84,36,29.21,29.09,9,1,11,0.59
2013-6-6,86.4,71.1,60.4,68.4,63.6,59.9,98,80,46,29.09,28.91,9,2,11,0.16
2013-6-7,84.0,65.9,63.7,69.4,64.7,62.8,97,96,59,28.97,28.88,5,0,6,1.26
2013-6-8,62.6,62.3,62.2,61.6,61.5,61.4,97,97,97,29.12,29.09,0,0,0,0.00
2013-6-9,62.4,62.0,61.7,61.6,61.1,60.8,97,97,97,29.24,29.24,0,0,0,0.00
2013-6-10,85.3,75.9,64.2,67.3,63.9,59.1,97,68,44,29.15,29.06,10,4,13,0.67
2013-6-11,89.1,74.2,65.1,72.5,67.0,62.8,97,81,47,29.21,29.12,7,0,9,0.12
2013-6-12,102.0,78.1,63.9,74.1,68.6,63.0,97,76,36,29.24,29.12,8,1,10,0.00
2013-6-13,98.8,78.7,66.2,75.0,67.2,60.9,97,72,37,29.12,28.91,14,3,20,0.00
2013-6-14,91.8,71.5,56.5,64.9,55.4,48.6,97,63,30,29.21,29.06,7,1,12,0.00
2013-6-15,97.3,72.8,55.0,67.8,57.5,51.2,97,66,26,29.30,29.18,8,1,10,0.00
2013-6-16,92.8,73.3,58.1,69.9,62.5,57.3,97,74,37,29.30,29.15,8,2,11,0.04
2013-6-17,85.3,72.0,65.5,70.7,66.5,62.8,97,85,51,29.21,29.09,11,1,17,0.59
2013-6-18,83.5,70.0,61.7,73.9,66.5,60.8,97,89,62,29.12,29.03,10,2,13,0.94
2013-6-19,82.8,69.9,58.1,66.8,60.6,54.6,97,76,40,29.24,29.12,8,1,10,0.00
2013-6-20,96.3,71.3,59.7,68.2,61.6,55.0,97,77,34,29.36,29.24,12,1,17,0.75
2013-6-21,84.6,71.0,63.1,68.9,64.7,61.5,97,83,50,29.42,29.33,5,0,7,0.00
2013-6-22,94.8,74.4,60.4,68.4,61.4,54.8,97,69,33,29.42,29.24,7,1,8,0.00
2013-6-23,96.3,74.0,60.8,70.5,63.6,57.5,97,75,32,29.39,29.27,10,1,12,0.35
2013-6-24,96.8,76.8,63.7,73.2,65.6,60.3,97,72,37,29.39,29.24,8,1,10,0.00
2013-6-25,88.7,74.8,66.0,72.7,67.8,62.9,97,81,48,29.33,29.18,6,0,8,0.00
2013-6-26,99.9,79.0,64.9,74.9,68.1,63.8,97,73,36,29.24,29.06,7,1,11,0.00
2013-6-27,91.0,77.8,68.9,73.0,68.9,62.4,97,76,48,29.12,28.97,9,3,14,0.20
2013-6-28,97.9,77.8,65.3,72.1,66.6,60.8,97,73,38,29.03,28.85,6,0,9,0.00
2013-6-29,100.8,76.8,62.8,71.2,61.4,52.8,97,66,29,28.88,28.83,8,0,10,0.00
2013-6-30,99.0,75.4,59.7,66.9,60.2,51.8,97,66,27,29.00,28.85,7,0,10,0.00